Time;durP1;ratioP1;P1;durP2;ratioP2;P2;SDS_P1;SDS_P2;PMS_P1;PMS_P2;Temp;Humidity;BMP_temperature;BMP_pressure;BME280_temperature;BME280_humidity;BME280_pressure;Samples;Min_cycle;Max_cycle;Signal;HPM_P1;HPM_P2
2022/09/03 00:01:54;;;;;;;;;;;;;;;24.03;59.98;99624.28;7312758;19;129326;-38
2022/09/03 00:04:30;;;;;;;;;;;;;;;24.02;60.21;99622.66;7315464;19;128849;-38
2022/09/03 00:07:01;;;;;;;;;;;;;;;24.00;60.66;99621.97;7313627;19;129176;-38
2022/09/03 00:09:41;;;;;;;;;;;;;;;23.98;60.59;99615.25;7315396;19;129106;-38
2022/09/03 00:12:19;;;;;;;;;;;;;;;23.98;60.66;99615.25;7313965;19;130165;-37
2022/09/03 00:15:00;;;;;;;;;;;;;;;23.90;61.04;99596.78;7315005;19;129047;-38
2022/09/03 00:17:37;;;;;;;;;;;;;;;23.89;60.22;99595.13;7313125;19;129247;-36
2022/09/03 00:20:23;;;;;;;;;;;;;;;23.97;60.97;99608.31;7314159;19;129216;-38
2022/09/03 00:22:50;;;;;;;;;;;;;;;23.97;60.89;99603.88;7312778;19;129915;-37
2022/09/03 00:25:25;;;;;;;;;;;;;;;23.97;60.50;99608.31;7313246;19;129205;-38
2022/09/03 00:27:54;;;;;;;;;;;;;;;23.96;59.97;99601.41;7312604;19;129133;-38
2022/09/03 00:30:19;;;;;;;;;;;;;;;23.97;60.07;99596.00;7314230;19;130239;-38
2022/09/03 00:32:47;;;;;;;;;;;;;;;23.98;60.68;99600.28;7313847;19;129270;-38
2022/09/03 00:35:23;;;;;;;;;;;;;;;23.97;60.25;99593.38;7312838;19;129356;-38
2022/09/03 00:37:50;;;;;;;;;;;;;;;23.87;59.98;99576.91;7305219;19;129364;-37
2022/09/03 00:40:21;;;;;;;;;;;;;;;23.98;60.26;99579.28;7311785;19;129938;-38
2022/09/03 00:42:55;;;;;;;;;;;;;;;23.98;60.29;99583.75;7312973;19;129508;-38
2022/09/03 00:45:41;;;;;;;;;;;;;;;23.98;60.39;99584.53;7312354;19;128890;-38
2022/09/03 00:48:19;;;;;;;;;;;;;;;23.98;60.34;99579.28;7310894;19;129531;-38
2022/09/03 00:51:16;;;;;;;;;;;;;;;23.98;59.75;99584.53;7313560;19;129119;-38
2022/09/03 00:54:00;;;;;;;;;;;;;;;23.97;60.10;99580.25;7310434;19;130920;-38
2022/09/03 00:56:37;;;;;;;;;;;;;;;23.96;59.90;99583.88;7313292;19;129442;-38
2022/09/03 00:59:20;;;;;;;;;;;;;;;23.97;60.46;99580.25;7313042;19;128833;-38
2022/09/03 01:01:59;;;;;;;;;;;;;;;23.94;60.11;99574.47;7307174;19;130150;-38
2022/09/03 01:04:24;;;;;;;;;;;;;;;23.99;60.37;99580.13;7311930;19;129714;-38
2022/09/03 01:07:13;;;;;;;;;;;;;;;23.97;60.04;99575.00;7311120;19;128958;-38
2022/09/03 01:10:02;;;;;;;;;;;;;;;23.97;59.99;99577.63;7311991;19;129015;-36
2022/09/03 01:12:43;;;;;;;;;;;;;;;23.97;60.31;99579.41;7311705;19;129640;-36
2022/09/03 01:15:15;;;;;;;;;;;;;;;23.98;60.07;99578.50;7319931;19;129665;-38
2022/09/03 01:17:59;;;;;;;;;;;;;;;23.98;60.38;99583.75;7316942;19;129224;-38
2022/09/03 01:20:33;;;;;;;;;;;;;;;23.98;59.87;99581.13;7319457;19;130211;-38
2022/09/03 01:23:05;;;;;;;;;;;;;;;23.98;60.34;99581.91;7318678;19;130944;-38
2022/09/03 01:25:31;;;;;;;;;;;;;;;23.97;60.41;99580.25;7318179;19;129608;-38
2022/09/03 01:27:59;;;;;;;;;;;;;;;23.89;60.34;99567.06;7317002;19;128837;-38
2022/09/03 01:30:24;;;;;;;;;;;;;;;23.98;59.73;99589.00;7320500;19;128913;-38
2022/09/03 01:32:50;;;;;;;;;;;;;;;23.89;60.06;99574.94;7319123;19;130371;-38
2022/09/03 01:35:30;;;;;;;;;;;;;;;23.98;60.11;99589.78;7319131;19;130338;-38
2022/09/03 01:38:04;;;;;;;;;;;;;;;23.98;59.68;99589.00;7317567;19;128939;-37
2022/09/03 01:40:29;;;;;;;;;;;;;;;23.97;59.72;99590.75;7318569;19;129017;-37
2022/09/03 01:43:23;;;;;;;;;;;;;;;23.96;59.94;99594.38;7318695;19;128983;-37
2022/09/03 01:45:59;;;;;;;;;;;;;;;23.96;60.01;99594.38;7318288;19;129090;-37
2022/09/03 01:48:24;;;;;;;;;;;;;;;23.96;60.36;99590.91;7318832;19;129136;-37
2022/09/03 01:50:50;;;;;;;;;;;;;;;23.95;60.46;99599.75;7318797;19;128834;-37
2022/09/03 01:53:26;;;;;;;;;;;;;;;23.96;60.09;99597.00;7318017;19;130210;-37
2022/09/03 01:55:54;;;;;;;;;;;;;;;23.97;60.19;99593.38;7318563;19;129844;-37
2022/09/03 01:58:20;;;;;;;;;;;;;;;23.95;59.95;99600.59;7318451;19;128972;-38
2022/09/03 02:00:49;;;;;;;;;;;;;;;23.88;60.37;99582.97;7318344;19;129414;-37
2022/09/03 02:03:15;;;;;;;;;;;;;;;23.97;60.05;99603.88;7317816;19;129613;-37
2022/09/03 02:05:42;;;;;;;;;;;;;;;23.96;59.92;99594.38;7316888;19;129177;-37
2022/09/03 02:08:08;;;;;;;;;;;;;;;23.96;60.00;99589.13;7316109;19;129481;-37
2022/09/03 02:10:42;;;;;;;;;;;;;;;23.97;60.23;99585.50;7317910;19;128893;-37
2022/09/03 02:13:07;;;;;;;;;;;;;;;23.95;59.63;99590.06;7317430;19;129009;-37
2022/09/03 02:15:35;;;;;;;;;;;;;;;23.95;59.72;99590.06;7317918;19;129386;-38
2022/09/03 02:18:02;;;;;;;;;;;;;;;23.96;59.69;99586.50;7316374;19;129835;-38
2022/09/03 02:20:28;;;;;;;;;;;;;;;23.95;59.57;99587.44;7317556;19;129479;-38
2022/09/03 02:22:54;;;;;;;;;;;;;;;23.95;59.69;99590.06;7315474;19;130031;-38
2022/09/03 02:25:22;;;;;;;;;;;;;;;23.94;60.13;99588.44;7310607;19;131034;-38
2022/09/03 02:27:48;;;;;;;;;;;;;;;23.95;60.41;99586.63;7315289;19;129192;-37
2022/09/03 02:30:13;;;;;;;;;;;;;;;23.95;60.34;99590.06;7317392;19;129013;-37
2022/09/03 02:32:38;;;;;;;;;;;;;;;23.95;60.30;99589.25;7317210;19;130264;-37
2022/09/03 02:35:04;;;;;;;;;;;;;;;23.94;59.56;99585.81;7316265;19;129727;-37
2022/09/03 02:37:29;;;;;;;;;;;;;;;23.95;59.69;99590.06;7315830;19;128898;-38
2022/09/03 02:39:54;;;;;;;;;;;;;;;23.95;60.03;99586.63;7316555;19;128843;-37
2022/09/03 02:42:20;;;;;;;;;;;;;;;23.95;59.78;99595.31;7315554;19;129301;-37
2022/09/03 02:44:54;;;;;;;;;;;;;;;23.94;60.12;99588.44;7316439;19;131000;-38
2022/09/03 02:47:19;;;;;;;;;;;;;;;23.95;59.81;99584.81;7316304;19;131308;-37
2022/09/03 02:49:45;;;;;;;;;;;;;;;23.95;59.69;99584.81;7317949;19;130159;-37
2022/09/03 02:52:11;;;;;;;;;;;;;;;23.95;59.98;99584.00;7316548;19;130345;-37
2022/09/03 02:54:38;;;;;;;;;;;;;;;23.95;59.61;99584.00;7317739;19;131538;-37
2022/09/03 02:57:04;;;;;;;;;;;;;;;23.93;59.44;99586.78;7316743;19;128978;-38
2022/09/03 02:59:30;;;;;;;;;;;;;;;23.96;60.08;99583.88;7316819;19;128921;-37
2022/09/03 03:01:55;;;;;;;;;;;;;;;23.87;59.86;99570.81;7317534;19;129312;-37
2022/09/03 03:04:21;;;;;;;;;;;;;;;23.93;60.33;99581.53;7317444;19;130268;-37
2022/09/03 03:06:46;;;;;;;;;;;;;;;23.94;59.60;99572.69;7315164;19;128966;-38
2022/09/03 03:09:11;;;;;;;;;;;;;;;23.94;59.96;99577.94;7317140;19;129419;-37
2022/09/03 03:11:36;;;;;;;;;;;;;;;23.94;59.63;99577.94;7315575;19;130083;-37
2022/09/03 03:14:02;;;;;;;;;;;;;;;23.92;60.24;99579.88;7316850;19;131224;-37
2022/09/03 03:16:28;;;;;;;;;;;;;;;23.94;60.21;99577.09;7316148;19;129044;-37
2022/09/03 03:18:55;;;;;;;;;;;;;;;23.93;59.67;99578.91;7317544;19;129202;-37
2022/09/03 03:21:20;;;;;;;;;;;;;;;23.93;59.98;99564.97;7315580;19;130929;-37
2022/09/03 03:23:45;;;;;;;;;;;;;;;23.94;59.58;99569.22;7315339;19;129749;-37
2022/09/03 03:26:12;;;;;;;;;;;;;;;23.93;60.11;99567.59;7314745;19;129524;-38
2022/09/03 03:28:37;;;;;;;;;;;;;;;23.94;59.50;99570.06;7315402;19;129315;-37
2022/09/03 03:31:06;;;;;;;;;;;;;;;23.93;60.05;99567.59;7315696;19;129899;-37
2022/09/03 03:33:32;;;;;;;;;;;;;;;23.93;60.24;99570.22;7315108;19;131181;-37
2022/09/03 03:35:57;;;;;;;;;;;;;;;23.93;59.62;99572.84;7313272;19;129214;-37
2022/09/03 03:38:22;;;;;;;;;;;;;;;23.93;59.96;99564.97;7314849;19;128827;-38
2022/09/03 03:40:48;;;;;;;;;;;;;;;23.93;60.35;99575.47;7315735;19;130642;-37
2022/09/03 03:43:13;;;;;;;;;;;;;;;23.91;59.55;99573.00;7315304;19;129745;-38
2022/09/03 03:45:38;;;;;;;;;;;;;;;23.93;59.72;99576.28;7314243;19;129271;-37
2022/09/03 03:48:03;;;;;;;;;;;;;;;23.93;59.50;99576.28;7312631;19;128902;-37
2022/09/03 03:50:29;;;;;;;;;;;;;;;23.92;60.14;99579.88;7314902;19;131403;-37
2022/09/03 03:52:57;;;;;;;;;;;;;;;23.93;59.50;99581.53;7315182;19;130475;-37
2022/09/03 03:55:22;;;;;;;;;;;;;;;23.93;59.85;99581.53;7315464;19;129356;-37
2022/09/03 03:57:48;;;;;;;;;;;;;;;23.92;59.51;99577.25;7312550;19;129044;-37
2022/09/03 04:00:13;;;;;;;;;;;;;;;23.91;60.10;99570.38;7314483;19;129481;-38
2022/09/03 04:02:39;;;;;;;;;;;;;;;23.93;60.20;99578.91;7315086;19;130491;-36
2022/09/03 04:05:04;;;;;;;;;;;;;;;23.91;59.81;99574.78;7314007;19;129402;-38
2022/09/03 04:07:29;;;;;;;;;;;;;;;23.91;60.10;99578.25;7312609;19;128914;-38
2022/09/03 04:09:55;;;;;;;;;;;;;;;23.91;59.47;99573.00;7315141;19;130363;-38
2022/09/03 04:12:20;;;;;;;;;;;;;;;23.91;59.88;99573.00;7314330;19;129779;-38
2022/09/03 04:14:45;;;;;;;;;;;;;;;23.92;60.06;99563.28;7314181;19;129171;-38
2022/09/03 04:17:10;;;;;;;;;;;;;;;23.91;60.12;99566.91;7312674;19;129307;-38
2022/09/03 04:19:36;;;;;;;;;;;;;;;23.90;60.24;99565.28;7314767;19;128974;-38
2022/09/03 04:22:02;;;;;;;;;;;;;;;23.90;59.34;99568.72;7313966;19;129413;-36
2022/09/03 04:24:27;;;;;;;;;;;;;;;23.91;59.42;99569.53;7314033;19;128890;-38
2022/09/03 04:26:53;;;;;;;;;;;;;;;23.90;59.51;99566.09;7311289;19;128984;-38
2022/09/03 04:29:20;;;;;;;;;;;;;;;23.90;59.47;99566.09;7314524;19;129465;-38
2022/09/03 04:32:52;;;;;;;;;;;;;;;23.91;59.57;99565.13;7311645;19;130587;-38
2022/09/03 04:34:31;;;;;;;;;;;;;;;23.90;59.68;99560.81;7313975;19;129406;-38
2022/09/03 04:36:58;;;;;;;;;;;;;;;23.90;59.37;99565.28;7311859;19;129027;-38
2022/09/03 04:39:24;;;;;;;;;;;;;;;23.90;59.44;99562.66;7313685;19;130831;-38
2022/09/03 04:41:49;;;;;;;;;;;;;;;23.91;59.81;99567.75;7314235;19;129675;-36
2022/09/03 04:44:15;;;;;;;;;;;;;;;23.90;59.74;99560.81;7314105;19;129093;-38
2022/09/03 04:46:40;;;;;;;;;;;;;;;23.90;59.81;99563.44;7311208;19;128935;-36
2022/09/03 04:49:08;;;;;;;;;;;;;;;23.90;59.77;99562.66;7313967;19;129820;-38
2022/09/03 04:51:33;;;;;;;;;;;;;;;23.90;59.77;99563.44;7313644;19;129201;-38
2022/09/03 04:54:00;;;;;;;;;;;;;;;23.91;59.98;99569.53;7314243;19;129265;-38
2022/09/03 04:56:26;;;;;;;;;;;;;;;23.90;59.29;99573.97;7313098;19;129444;-38
2022/09/03 04:58:56;;;;;;;;;;;;;;;23.89;59.98;99574.94;7312331;19;129349;-38
2022/09/03 05:01:22;;;;;;;;;;;;;;;23.90;59.45;99581.84;7313699;19;130410;-38
2022/09/03 05:03:50;;;;;;;;;;;;;;;23.89;59.81;99580.19;7312278;19;128970;-38
2022/09/03 05:06:18;;;;;;;;;;;;;;;23.90;59.50;99581.84;7311860;19;129475;-37
2022/09/03 05:08:47;;;;;;;;;;;;;;;23.90;59.47;99584.47;7312823;19;129495;-37
2022/09/03 05:11:13;;;;;;;;;;;;;;;23.87;59.72;99582.16;7312889;19;129600;-37
2022/09/03 05:13:38;;;;;;;;;;;;;;;23.88;59.57;99583.78;7313566;19;129365;-38
2022/09/03 05:16:05;;;;;;;;;;;;;;;23.88;59.69;99578.53;7313225;19;129192;-37
2022/09/03 05:18:31;;;;;;;;;;;;;;;23.90;59.35;99578.41;7312561;19;129211;-38
2022/09/03 05:21:00;;;;;;;;;;;;;;;23.90;59.66;99571.34;7313782;19;130324;-38
2022/09/03 05:23:32;;;;;;;;;;;;;;;23.90;59.89;99571.34;7311840;19;129005;-38
2022/09/03 05:25:58;;;;;;;;;;;;;;;23.90;59.41;99571.34;7310537;19;128904;-37
2022/09/03 05:28:29;;;;;;;;;;;;;;;23.91;59.65;99570.38;7303570;19;130450;-38
2022/09/03 05:31:01;;;;;;;;;;;;;;;23.90;59.89;99575.78;7311180;19;130385;-38
2022/09/03 05:33:26;;;;;;;;;;;;;;;23.89;59.41;99572.31;7313394;19;129096;-38
2022/09/03 05:35:52;;;;;;;;;;;;;;;23.89;59.95;99564.44;7311492;19;129861;-37
2022/09/03 05:38:18;;;;;;;;;;;;;;;23.89;59.85;99563.63;7310679;19;129704;-37
2022/09/03 05:40:43;;;;;;;;;;;;;;;23.89;59.94;99561.81;7310502;19;130055;-38
2022/09/03 05:43:08;;;;;;;;;;;;;;;23.81;59.28;99550.44;7311467;19;129039;-38
2022/09/03 05:45:33;;;;;;;;;;;;;;;23.83;59.97;99564.25;7311426;19;129359;-38
2022/09/03 05:48:00;;;;;;;;;;;;;;;23.90;59.61;99567.91;7308848;19;130079;-38
2022/09/03 05:50:25;;;;;;;;;;;;;;;23.91;59.65;99577.41;7311893;19;130885;-38
2022/09/03 05:52:51;;;;;;;;;;;;;;;23.90;59.98;99581.03;7311216;19;129688;-38
2022/09/03 05:55:16;;;;;;;;;;;;;;;23.89;59.61;99577.56;7311002;19;128745;-35
2022/09/03 05:57:42;;;;;;;;;;;;;;;23.89;59.32;99569.69;7308454;19;129798;-38
2022/09/03 06:00:08;;;;;;;;;;;;;;;23.89;59.64;99572.31;7315785;19;130902;-38
2022/09/03 06:02:34;;;;;;;;;;;;;;;23.89;59.64;99568.88;7318333;19;129497;-36
2022/09/03 06:04:59;;;;;;;;;;;;;;;23.88;59.66;99573.28;7318217;19;129206;-38
2022/09/03 06:07:24;;;;;;;;;;;;;;;23.88;59.29;99573.28;7315552;19;130061;-38
2022/09/03 06:09:49;;;;;;;;;;;;;;;23.88;59.85;99575.91;7318114;19;129678;-38
2022/09/03 06:12:14;;;;;;;;;;;;;;;23.89;59.45;99574.94;7317808;19;129517;-38
2022/09/03 06:14:40;;;;;;;;;;;;;;;23.88;60.00;99573.28;7317649;19;129577;-36
2022/09/03 06:17:05;;;;;;;;;;;;;;;23.80;59.63;99565.34;7316128;19;129703;-35
2022/09/03 06:19:30;;;;;;;;;;;;;;;23.88;59.50;99575.91;7318571;19;130431;-38
2022/09/03 06:21:56;;;;;;;;;;;;;;;23.81;60.01;99563.56;7317666;19;129379;-38
2022/09/03 06:24:22;;;;;;;;;;;;;;;23.88;59.86;99583.78;7317105;19;129075;-38
2022/09/03 06:26:48;;;;;;;;;;;;;;;23.88;59.65;99586.41;7315714;19;129234;-36
2022/09/03 06:29:13;;;;;;;;;;;;;;;23.88;59.22;99583.78;7316208;19;129766;-38
2022/09/03 06:31:39;;;;;;;;;;;;;;;23.88;59.21;99589.03;7315543;19;129241;-38
2022/09/03 06:34:04;;;;;;;;;;;;;;;23.88;59.09;99589.03;7316530;19;128997;-38
2022/09/03 06:36:30;;;;;;;;;;;;;;;23.88;59.41;99588.22;7315718;19;130262;-36
2022/09/03 06:38:56;;;;;;;;;;;;;;;23.88;59.26;99589.03;7317768;19;129239;-38
2022/09/03 06:41:25;;;;;;;;;;;;;;;23.89;59.58;99589.88;7316744;19;129166;-36
2022/09/03 06:43:52;;;;;;;;;;;;;;;23.88;59.69;99594.28;7317275;19;129063;-38
2022/09/03 06:46:18;;;;;;;;;;;;;;;23.87;59.29;99595.28;7315959;19;131119;-38
2022/09/03 06:48:44;;;;;;;;;;;;;;;23.87;59.36;99597.91;7317363;19;129413;-37
2022/09/03 06:51:11;;;;;;;;;;;;;;;23.88;59.44;99590.88;7317206;19;128854;-38
2022/09/03 06:53:40;;;;;;;;;;;;;;;23.88;59.90;99591.66;7317000;19;129363;-38
2022/09/03 06:56:07;;;;;;;;;;;;;;;23.88;59.29;99594.28;7316382;19;129245;-38
2022/09/03 06:58:36;;;;;;;;;;;;;;;23.88;59.95;99585.63;7316903;19;130250;-38
2022/09/03 07:01:01;;;;;;;;;;;;;;;23.87;59.63;99586.56;7317289;19;128809;-38
2022/09/03 07:03:27;;;;;;;;;;;;;;;23.86;60.06;99583.16;7316563;19;128815;-38
2022/09/03 07:05:52;;;;;;;;;;;;;;;23.86;59.86;99585.78;7315694;19;129460;-38
2022/09/03 07:08:17;;;;;;;;;;;;;;;23.87;59.47;99586.56;7316607;19;130514;-38
2022/09/03 07:10:46;;;;;;;;;;;;;;;23.88;59.90;99589.03;7313935;19;129250;-38
2022/09/03 07:13:12;;;;;;;;;;;;;;;23.87;59.35;99590.03;7315274;19;128823;-38
2022/09/03 07:15:37;;;;;;;;;;;;;;;23.86;59.52;99583.16;7315824;19;129046;-38
2022/09/03 07:18:02;;;;;;;;;;;;;;;23.87;59.83;99579.53;7314111;19;130955;-38
2022/09/03 07:20:27;;;;;;;;;;;;;;;23.86;59.94;99579.69;7316028;19;128626;-39
2022/09/03 07:22:54;;;;;;;;;;;;;;;23.77;60.00;99570.94;7315543;19;129548;-38
2022/09/03 07:25:19;;;;;;;;;;;;;;;23.86;59.55;99580.50;7315992;19;130118;-38
2022/09/03 07:27:46;;;;;;;;;;;;;;;23.86;59.76;99570.00;7313673;19;130075;-38
2022/09/03 07:30:11;;;;;;;;;;;;;;;23.76;59.72;99556.16;7316303;19;128855;-38
2022/09/03 07:32:39;;;;;;;;;;;;;;;23.86;59.58;99574.44;7315388;19;129223;-38
2022/09/03 07:35:05;;;;;;;;;;;;;;;23.79;59.39;99562.91;7315404;19;130103;-38
2022/09/03 07:37:31;;;;;;;;;;;;;;;23.84;59.40;99571.97;7315120;19;129495;-38
2022/09/03 07:39:56;;;;;;;;;;;;;;;23.78;60.17;99550.75;7314782;19;129789;-38
2022/09/03 07:42:21;;;;;;;;;;;;;;;23.87;60.12;99561.16;7315433;19;129218;-38
2022/09/03 07:44:47;;;;;;;;;;;;;;;23.78;60.35;99558.63;7315418;19;129347;-38
2022/09/03 07:47:13;;;;;;;;;;;;;;;23.87;59.48;99561.16;7314877;19;130278;-38
2022/09/03 07:49:39;;;;;;;;;;;;;;;23.84;59.94;99555.38;7315417;19;128929;-38
2022/09/03 07:52:04;;;;;;;;;;;;;;;23.75;60.03;99538.75;7314499;19;129968;-38
2022/09/03 07:54:30;;;;;;;;;;;;;;;23.84;60.37;99558.84;7315947;19;130269;-38
2022/09/03 07:56:55;;;;;;;;;;;;;;;23.85;59.86;99554.41;7314330;19;130299;-38
2022/09/03 07:59:21;;;;;;;;;;;;;;;23.85;59.41;99563.09;7315361;19;129577;-38
2022/09/03 08:01:47;;;;;;;;;;;;;;;23.84;60.16;99560.63;7313882;19;129506;-38
2022/09/03 08:04:12;;;;;;;;;;;;;;;23.84;59.58;99558.84;7315320;19;129636;-38
2022/09/03 08:06:37;;;;;;;;;;;;;;;23.85;59.55;99559.66;7314420;19;129830;-38
2022/09/03 08:09:04;;;;;;;;;;;;;;;23.86;60.17;99570.00;7315067;19;129149;-38
2022/09/03 08:11:30;;;;;;;;;;;;;;;23.87;60.58;99566.41;7314505;19;128973;-37
2022/09/03 08:14:00;;;;;;;;;;;;;;;23.84;59.74;99563.25;7315408;19;129514;-38
2022/09/03 08:16:25;;;;;;;;;;;;;;;23.83;60.00;99565.03;7313347;19;129535;-38
2022/09/03 08:18:50;;;;;;;;;;;;;;;23.82;60.32;99562.56;7314455;19;129033;-37
2022/09/03 08:21:17;;;;;;;;;;;;;;;23.83;60.39;99554.53;7313339;19;128980;-38
2022/09/03 08:23:47;;;;;;;;;;;;;;;23.85;60.13;99560.47;7313612;19;129395;-38
2022/09/03 08:26:13;;;;;;;;;;;;;;;23.84;60.38;99556.22;7313065;19;130419;-37
2022/09/03 08:28:38;;;;;;;;;;;;;;;23.75;60.46;99543.19;7313325;19;129212;-38
2022/09/03 08:31:14;;;;;;;;;;;;;;;23.76;59.97;99550.91;7311140;19;129634;-37
2022/09/03 08:33:41;;;;;;;;;;;;;;;23.84;59.99;99560.63;7313620;19;129246;-37
2022/09/03 08:36:07;;;;;;;;;;;;;;;23.83;60.21;99554.53;7313586;19;130134;-37
2022/09/03 08:38:33;;;;;;;;;;;;;;;23.73;60.06;99537.28;7313822;19;129934;-38
2022/09/03 08:41:06;;;;;;;;;;;;;;;23.81;60.71;99551.28;7313676;19;128983;-37
2022/09/03 08:43:37;;;;;;;;;;;;;;;23.81;60.68;99558.31;7313067;19;130172;-37
2022/09/03 08:46:02;;;;;;;;;;;;;;;23.79;60.23;99547.13;7314077;19;130267;-38
2022/09/03 08:48:28;;;;;;;;;;;;;;;23.81;60.05;99551.28;7314859;19;129200;-37
2022/09/03 08:50:58;;;;;;;;;;;;;;;23.81;60.32;99550.44;7314086;19;129169;-38
2022/09/03 08:53:44;;;;;;;;;;;;;;;23.82;60.30;99547.66;7312930;19;130820;-37
2022/09/03 08:56:11;;;;;;;;;;;;;;;23.83;60.17;99546.66;7312646;19;130195;-37
2022/09/03 08:58:37;;;;;;;;;;;;;;;23.75;59.95;99536.13;7313766;19;129429;-38
2022/09/03 09:01:05;;;;;;;;;;;;;;;23.73;60.17;99526.75;7312939;19;128980;-38
2022/09/03 09:03:34;;;;;;;;;;;;;;;23.83;60.61;99538.78;7312032;19;130961;-37
2022/09/03 09:06:17;;;;;;;;;;;;;;;23.75;60.08;99532.69;7312571;19;129767;-37
2022/09/03 09:08:45;;;;;;;;;;;;;;;23.81;60.14;99539.94;7312939;19;128769;-37
2022/09/03 09:11:10;;;;;;;;;;;;;;;23.81;60.23;99546.03;7313574;19;128943;-37
2022/09/03 09:13:48;;;;;;;;;;;;;;;23.80;60.35;99533.84;7312879;19;129930;-37
2022/09/03 09:16:29;;;;;;;;;;;;;;;23.77;60.13;99521.03;7312000;19;130288;-37
2022/09/03 09:18:54;;;;;;;;;;;;;;;23.84;60.52;99532.59;7313490;19;129426;-38
2022/09/03 09:21:26;;;;;;;;;;;;;;;23.83;60.49;99528.28;7313223;19;130204;-38
2022/09/03 09:23:54;;;;;;;;;;;;;;;23.86;60.02;99528.00;7311680;19;130841;-38
2022/09/03 09:26:20;;;;;;;;;;;;;;;23.81;60.17;99525.03;7311192;19;130316;-38
2022/09/03 09:28:46;;;;;;;;;;;;;;;23.80;60.47;99528.59;7312194;19;129069;-38
2022/09/03 09:31:17;;;;;;;;;;;;;;;23.81;60.19;99527.66;7312190;19;129156;-38
2022/09/03 09:33:44;;;;;;;;;;;;;;;23.82;60.26;99521.41;7312873;19;129129;-38
2022/09/03 09:36:14;;;;;;;;;;;;;;;23.82;60.71;99529.28;7319617;19;129354;-38
2022/09/03 09:38:40;;;;;;;;;;;;;;;23.80;60.32;99528.59;7319091;19;129605;-37
2022/09/03 09:41:09;;;;;;;;;;;;;;;23.71;60.59;99505.94;7318606;19;128847;-38
2022/09/03 09:43:35;;;;;;;;;;;;;;;23.81;60.22;99518.94;7317836;19;129247;-38
2022/09/03 09:46:07;;;;;;;;;;;;;;;23.81;60.51;99514.53;7318830;19;130292;-38
2022/09/03 09:48:36;;;;;;;;;;;;;;;23.80;60.43;99512.84;7319033;19;129162;-38
2022/09/03 09:51:10;;;;;;;;;;;;;;;23.81;60.24;99514.53;7319660;19;129557;-37
2022/09/03 09:53:35;;;;;;;;;;;;;;;23.80;60.26;99504.97;7317606;19;130234;-37
2022/09/03 09:56:01;;;;;;;;;;;;;;;23.84;60.21;99508.13;7318118;19;129264;-38
2022/09/03 09:58:29;;;;;;;;;;;;;;;23.82;60.31;99499.56;7319026;19;128854;-37
2022/09/03 10:01:12;;;;;;;;;;;;;;;23.81;60.87;99501.38;7317736;19;128962;-38
2022/09/03 10:03:40;;;;;;;;;;;;;;;23.79;60.76;99505.97;7317506;19;130177;-38
2022/09/03 10:09:04;;;;;;;;;;;;;;;23.79;60.34;99502.50;7318934;19;128834;-38
2022/09/03 10:11:29;;;;;;;;;;;;;;;23.77;61.29;99502.66;7318299;19;129208;-37
2022/09/03 10:13:55;;;;;;;;;;;;;;;23.75;60.79;99502.00;7318686;19;130229;-37
2022/09/03 10:16:24;;;;;;;;;;;;;;;23.75;60.47;99499.38;7316700;19;131213;-37
2022/09/03 10:18:59;;;;;;;;;;;;;;;23.77;60.43;99497.41;7318298;19;129056;-37
2022/09/03 10:21:33;;;;;;;;;;;;;;;23.79;60.29;99499.88;7318377;19;129368;-37
2022/09/03 10:24:20;;;;;;;;;;;;;;;23.79;60.34;99495.47;7317646;19;129719;-37
2022/09/03 10:26:46;;;;;;;;;;;;;;;23.78;60.42;99487.75;7316233;19;131016;-37
2022/09/03 10:29:15;;;;;;;;;;;;;;;23.81;60.68;99488.25;7317989;19;129075;-37
2022/09/03 10:32:00;;;;;;;;;;;;;;;23.80;60.48;99494.47;7317064;19;128920;-39
2022/09/03 10:34:41;;;;;;;;;;;;;;;23.81;60.34;99493.50;7317561;19;130338;-36
2022/09/03 10:37:06;;;;;;;;;;;;;;;23.81;60.44;99482.19;7315350;19;129344;-38
2022/09/03 10:39:44;;;;;;;;;;;;;;;23.83;60.58;99486.28;7317503;19;128771;-36
2022/09/03 10:42:23;;;;;;;;;;;;;;;23.83;60.78;99480.22;7317103;19;129260;-38
2022/09/03 10:45:02;;;;;;;;;;;;;;;23.75;60.59;99491.50;7317135;19;130331;-38
2022/09/03 10:47:34;;;;;;;;;;;;;;;23.67;61.31;99478.31;7316095;19;132092;-39
2022/09/03 10:50:00;;;;;;;;;;;;;;;23.72;61.10;99486.56;7318348;19;130381;-36
2022/09/03 10:52:30;;;;;;;;;;;;;;;23.76;60.70;99480.03;7316026;19;128923;-36
2022/09/03 10:55:14;;;;;;;;;;;;;;;23.76;60.88;99469.53;7317172;19;130039;-38
2022/09/03 10:57:53;;;;;;;;;;;;;;;23.70;60.59;99457.00;7314641;19;129722;-38
2022/09/03 11:00:19;;;;;;;;;;;;;;;23.78;60.72;99462.31;7317283;19;129620;-38
2022/09/03 11:03:23;;;;;;;;;;;;;;;23.70;61.38;99446.50;7317005;19;128975;-38
2022/09/03 11:05:48;;;;;;;;;;;;;;;23.77;60.79;99455.41;7312439;19;130939;-38
2022/09/03 11:08:17;;;;;;;;;;;;;;;23.80;60.99;99455.09;7310339;19;131382;-38
2022/09/03 11:10:49;;;;;;;;;;;;;;;23.79;61.04;99453.47;7314491;19;129809;-38
2022/09/03 11:13:25;;;;;;;;;;;;;;;23.78;60.77;99462.31;7315942;19;128601;-38
2022/09/03 11:15:53;;;;;;;;;;;;;;;23.76;60.37;99459.03;7316786;19;128977;-37
2022/09/03 11:18:21;;;;;;;;;;;;;;;23.79;61.06;99450.84;7316329;19;130364;-37
2022/09/03 11:20:48;;;;;;;;;;;;;;;23.69;60.75;99437.00;7317309;19;128878;-38
2022/09/03 11:23:15;;;;;;;;;;;;;;;23.79;61.23;99450.84;7315857;19;129091;-37
2022/09/03 11:25:42;;;;;;;;;;;;;;;23.81;60.73;99451.50;7315365;19;129290;-37
2022/09/03 11:28:25;;;;;;;;;;;;;;;23.82;60.80;99447.88;7314029;19;129429;-38
2022/09/03 11:31:12;;;;;;;;;;;;;;;23.80;60.33;99444.59;7316892;19;129175;-38
2022/09/03 11:33:40;;;;;;;;;;;;;;;23.80;60.96;99449.03;7316417;19;129366;-38
2022/09/03 11:36:05;;;;;;;;;;;;;;;23.70;61.05;99433.38;7315463;19;131156;-37
2022/09/03 11:38:31;;;;;;;;;;;;;;;23.80;61.11;99449.84;7315178;19;129170;-37
2022/09/03 11:41:35;;;;;;;;;;;;;;;23.83;60.84;99448.72;7315293;19;129542;-37
2022/09/03 11:44:19;;;;;;;;;;;;;;;23.69;60.86;99421.25;7311786;19;129143;-38
2022/09/03 11:46:57;;;;;;;;;;;;;;;23.82;60.99;99444.44;7310598;19;130085;-37
2022/09/03 11:49:30;;;;;;;;;;;;;;;23.77;62.02;99438.84;7313572;19;129748;-38
2022/09/03 11:52:00;;;;;;;;;;;;;;;23.76;61.12;99440.66;7315745;19;129225;-38
2022/09/03 11:54:25;;;;;;;;;;;;;;;23.77;61.60;99429.16;7315024;19;128804;-38
2022/09/03 11:57:05;;;;;;;;;;;;;;;23.78;61.29;99425.56;7311721;19;129974;-37
2022/09/03 11:59:30;;;;;;;;;;;;;;;23.69;61.26;99431.75;7314917;19;129310;-38
2022/09/03 12:01:57;;;;;;;;;;;;;;;23.74;61.38;99434.72;7314763;19;128914;-37
2022/09/03 12:04:38;;;;;;;;;;;;;;;23.75;60.80;99440.81;7315481;19;129153;-38
2022/09/03 12:07:11;;;;;;;;;;;;;;;23.79;61.40;99429.84;7313182;19;130078;-38
2022/09/03 12:09:55;;;;;;;;;;;;;;;23.70;60.74;99416.84;7315612;19;129459;-38
2022/09/03 12:12:41;;;;;;;;;;;;;;;23.79;61.44;99437.72;7314335;19;129372;-38
2022/09/03 12:15:09;;;;;;;;;;;;;;;23.77;60.90;99429.16;7312795;19;130400;-37
2022/09/03 12:20:42;;;;;;;;;;;;;;;23.77;61.31;99429.16;7313933;19;128956;-38
2022/09/03 12:23:13;;;;;;;;;;;;;;;23.74;61.27;99413.72;7313537;19;129161;-37
2022/09/03 12:25:44;;;;;;;;;;;;;;;23.72;61.48;99413.06;7313385;19;129400;-37
2022/09/03 12:28:11;;;;;;;;;;;;;;;23.74;61.80;99421.59;7312439;19;130051;-38
2022/09/03 12:30:37;;;;;;;;;;;;;;;23.73;61.01;99419.97;7315116;19;129667;-37
2022/09/03 12:33:06;;;;;;;;;;;;;;;23.64;60.37;99423.53;7313386;19;128753;-37
2022/09/03 12:35:31;;;;;;;;;;;;;;;23.59;61.72;99430.22;7313432;19;129019;-38
2022/09/03 12:37:56;;;;;;;;;;;;;;;23.69;61.66;99423.88;7311799;19;130372;-38
2022/09/03 12:40:26;;;;;;;;;;;;;;;23.62;62.07;99420.22;7314483;19;130549;-37
2022/09/03 12:42:52;;;;;;;;;;;;;;;23.49;61.75;99414.59;7313061;19;129463;-37
2022/09/03 12:45:22;;;;;;;;;;;;;;;23.64;62.00;99420.91;7313984;19;129241;-38
2022/09/03 12:47:47;;;;;;;;;;;;;;;23.61;61.72;99413.34;7311676;19;129220;-37
2022/09/03 12:50:23;;;;;;;;;;;;;;;23.70;62.05;99406.34;7314261;19;130820;-38
2022/09/03 12:52:48;;;;;;;;;;;;;;;23.60;61.59;99400.38;7313319;19;128765;-38